Latest Weather Observations for Cape Bruny AWS

IDT60801

Issued at 2:41 am EST Thursday 25 April 2019 (issued every 10 minutes, with the page automatically refreshed every 10 minutes)

About weather observations | Map of weather stations | Latest weather observations for TAS | Other Formats
Station Details ID: 094198 Name: CAPE BRUNY (CAPE BRUNY) Lat: -43.49 Lon: 147.14 Height: 59.7 m
Data from the previous 72 hours. | See also: Recent months at Cape Bruny AWS
Date/Time
EST
Temp
°C
App
Temp
°C
Dew
Point
°C
Rel
Hum
%
Delta-T
°C
Wind Press
QNH
hPa
Press
MSL
hPa
Rain since
9am
mm
Dir  Spd
km/h
Gust
km/h
Spd
kts
Gust
kts
25/02:30am 12.8 2.9 6.4 65 3.1 W 48 61 26 33 1008.1 1008.1 0.0
25/02:19am 12.8 4.3 6.8 67 2.9 W 41 65 22 35 1008.1 1008.1 0.0
25/02:00am 12.8 5.0 8.1 73 2.3 W 39 54 21 29 1008.5 1008.5 0.0
25/01:57am 12.6 3.9 7.7 72 2.4 WNW 43 56 23 30 1008.3 1008.3 0.0
25/01:37am 12.9 0.4 7.6 70 2.6 WNW 63 80 34 43 1007.8 1007.8 0.0
25/01:30am 12.9 -2.3 6.7 66 3.0 W 76 96 41 52 1007.5 1007.5 0.0
25/01:06am 13.4 -0.6 6.3 62 3.4 W 69 89 37 48 1006.9 1006.9 0.0
25/01:00am 13.2 0.5 7.0 66 3.0 W 63 78 34 42 1006.9 1006.9 0.0
25/12:39am 13.9 1.2 6.7 62 3.5 WNW 63 95 34 51 1007.3 1007.3 0.0
25/12:34am 13.9 2.5 6.5 61 3.6 WNW 56 74 30 40 1007.6 1007.6 0.0
25/12:30am 13.8 2.4 6.9 63 3.4 WNW 56 70 30 38 1007.7 1007.7 0.0
25/12:08am 14.0 4.8 8.0 67 3.0 WNW 46 69 25 37 1008.0 1008.0 0.0
25/12:00am 13.6 4.9 7.8 68 2.9 WNW 43 59 23 32 1008.0 1008.0 0.0
 
Date/Time
EST
Temp
°C
App
Temp
°C
Dew
Point
°C
Rel
Hum
%
Delta-T
°C
Wind Press
QNH
hPa
Press
MSL
hPa
Rain since
9am
mm
Dir  Spd
km/h
Gust
km/h
Spd
kts
Gust
kts
24/11:36pm 14.7 6.6 6.8 59 3.9 W 39 72 21 39 1008.0 1008.0 0.0
24/11:30pm 14.7 7.9 7.0 60 3.8 W 32 48 17 26 1008.1 1008.1 0.0
24/11:00pm 14.5 10.5 4.8 52 4.5 NW 15 32 8 17 1008.5 1008.5 0.0
24/10:53pm 14.3 9.5 5.4 55 4.2 WNW 20 35 11 19 1008.4 1008.4 0.0
24/10:30pm 14.4 5.3 6.0 57 4.0 WNW 43 65 23 35 1008.7 1008.7 0.0
24/10:18pm 14.6 3.0 5.9 56 4.2 W 56 89 30 48 1008.7 1008.7 0.0
24/10:17pm 14.5 3.0 6.1 57 4.0 W 56 89 30 48 1008.8 1008.8 0.0
24/10:00pm 14.7 1.4 5.8 55 4.3 W 65 95 35 51 1008.6 1008.6 0.0
24/09:48pm 14.8 0.6 6.1 56 4.2 W 70 91 38 49 1008.4 1008.4 0.0
24/09:46pm 14.8 0.6 5.9 55 4.3 W 70 91 38 49 1008.3 1008.3 0.0
24/09:30pm 15.0 3.0 6.6 57 4.1 WNW 59 83 32 45 1008.8 1008.8 0.0
24/09:01pm 15.2 4.7 7.5 60 3.8 WNW 52 87 28 47 1009.5 1009.5 0.0
24/09:00pm 15.1 5.0 7.4 60 3.8 WNW 50 76 27 41 1009.5 1009.5 0.0
24/08:59pm 15.1 6.0 8.3 64 3.4 WNW 46 76 25 41 1009.6 1009.6 0.0
24/08:58pm 15.1 6.4 7.9 62 3.6 WNW 43 72 23 39 1009.5 1009.5 0.0
24/08:30pm 15.1 8.6 8.8 66 3.2 WNW 33 54 18 29 1010.0 1010.0 0.0
24/08:00pm 15.0 9.5 7.5 61 3.7 NW 26 39 14 21 1010.5 1010.5 0.0
24/07:30pm 15.1 9.9 7.2 59 3.9 NW 24 35 13 19 1010.8 1010.8 0.0
24/07:00pm 15.1 7.7 6.9 58 4.0 NW 35 48 19 26 1011.0 1011.0 0.0
24/06:30pm 15.2 6.6 6.7 57 4.2 NW 41 54 22 29 1011.6 1011.6 0.0
24/06:00pm 15.2 6.9 6.2 55 4.4 NW 39 61 21 33 1011.7 1011.7 0.0
24/05:53pm 15.1 7.6 6.1 55 4.3 NW 35 61 19 33 1011.7 1011.7 0.0
24/05:30pm 14.8 8.2 6.1 56 4.2 NW 30 44 16 24 1012.1 1012.1 0.0
24/05:11pm 15.2 7.2 5.7 53 4.5 NW 37 56 20 30 1012.4 1012.4 0.0
24/05:00pm 15.3 6.9 5.5 52 4.7 NW 39 52 21 28 1012.6 1012.6 0.0
24/04:30pm 15.8 7.0 5.7 51 4.9 NW 41 54 22 29 1012.5 1012.5 0.0
24/04:00pm 16.5 9.5 6.1 50 5.1 NW 32 44 17 24 1012.9 1012.9 0.0
24/03:30pm 17.2 12.0 7.3 52 5.0 NW 24 37 13 20 1013.6 1013.6 0.0
24/03:00pm 16.6 11.8 7.5 55 4.6 NW 22 35 12 19 1013.9 1013.9 0.0
24/02:30pm 16.5 12.3 7.4 55 4.6 NW 19 26 10 14 1014.5 1014.5 0.0
24/02:00pm 15.4 10.9 6.9 57 4.2 NW 20 30 11 16 1014.8 1014.8 0.0
24/01:30pm 15.3 13.8 10.5 73 2.5 W 9 13 5 7 1015.9 1015.9 0.0
24/01:00pm 15.4 13.7 9.7 69 3.0 WNW 9 11 5 6 1016.0 1016.0 0.0
24/12:30pm 15.9 13.8 9.8 67 3.2 N 11 17 6 9 1016.7 1016.7 0.0
24/12:00pm 16.1 13.4 10.2 68 3.1 N 15 22 8 12 1017.5 1017.5 0.0
24/11:30am 15.5 13.2 10.3 71 2.7 N 13 17 7 9 1018.1 1018.1 0.0
24/11:00am 15.4 12.0 9.1 66 3.2 N 17 22 9 12 1018.7 1018.7 0.0
24/10:30am 15.5 11.7 9.2 66 3.2 N 19 28 10 15 1019.3 1019.3 0.0
24/10:00am 15.0 11.0 8.9 67 3.1 N 20 26 11 14 1019.7 1019.7 0.0
24/09:30am 14.6 11.7 9.8 73 2.5 N 15 20 8 11 1019.9 1019.9 0.0
24/09:00am 13.9 11.7 10.7 81 1.7 N 13 19 7 10 1020.4 1020.4 0.0
24/08:30am 12.1 9.7 10.0 87 1.1 N 13 19 7 10 1021.0 1021.0 0.0
24/08:00am 11.4 8.1 9.7 89 0.9 N 17 20 9 11 1021.2 1021.2 0.0
24/07:30am 11.3 8.4 9.7 90 0.8 N 15 19 8 10 1021.2 1021.2 0.0
24/07:00am 11.0 8.1 9.6 91 0.7 N 15 19 8 10 1021.2 1021.2 0.0
24/06:30am 10.7 8.1 9.3 91 0.7 NNE 13 17 7 9 1021.5 1021.5 0.0
24/06:00am 11.0 8.5 9.6 91 0.7 N 13 15 7 8 1021.6 1021.6 0.0
24/05:30am 11.0 8.5 9.6 91 0.7 N 13 15 7 8 1021.8 1021.8 0.0
24/05:00am 11.1 8.2 9.5 90 0.8 N 15 17 8 9 1022.1 1022.1 0.0
24/04:30am 11.2 9.0 9.3 88 1.0 N 11 13 6 7 1022.3 1022.3 0.0
24/04:00am 11.4 9.5 9.1 86 1.1 NW 9 11 5 6 1022.6 1022.6 0.0
24/03:30am 12.0 10.6 9.6 85 1.2 WNW 7 11 4 6 1022.7 1022.7 0.0
24/03:00am 12.1 9.9 9.3 83 1.4 NW 11 15 6 8 1022.9 1022.9 0.0
24/02:30am 12.6 10.0 9.4 81 1.6 NW 13 17 7 9 1023.3 1023.3 0.0
24/02:00am 13.0 11.2 9.3 78 1.9 NW 9 13 5 7 1023.6 1023.6 0.0
24/01:30am 13.3 11.3 10.3 82 1.6 NNW 11 13 6 7 1023.8 1023.8 0.0
24/01:00am 13.6 11.5 9.6 77 2.0 NW 11 15 6 8 1024.0 1024.0 0.0
24/12:30am 13.5 11.0 9.7 78 2.0 NW 13 17 7 9 1024.0 1024.0 0.0
24/12:00am 13.7 10.1 9.9 78 2.0 WNW 19 26 10 14 1024.1 1024.1 0.0
 
Date/Time
EST
Temp
°C
App
Temp
°C
Dew
Point
°C
Rel
Hum
%
Delta-T
°C
Wind Press
QNH
hPa
Press
MSL
hPa
Rain since
9am
mm
Dir  Spd
km/h
Gust
km/h
Spd
kts
Gust
kts
23/11:30pm 13.5 11.1 10.1 80 1.8 NW 13 19 7 10 1024.1 1024.1 0.0
23/11:00pm 13.0 12.1 10.5 85 1.3 WNW 6 11 3 6 1024.3 1024.3 0.0
23/10:30pm 13.1 12.2 10.8 86 1.2 W 6 7 3 4 1024.5 1024.5 0.0
23/10:00pm 13.2 12.2 10.9 86 1.2 WSW 7 7 4 4 1024.6 1024.6 0.0
23/09:30pm 13.4 11.7 11.1 86 1.2 WSW 11 15 6 8 1024.7 1024.7 0.0
23/09:00pm 13.2 11.1 11.1 87 1.1 WSW 13 20 7 11 1024.8 1024.8 0.0
23/08:30pm 13.6 10.8 11.3 86 1.2 SW 17 22 9 12 1024.9 1024.9 0.0
23/08:00pm 13.8 12.8 11.1 84 1.4 SW 7 15 4 8 1024.9 1024.9 0.0
23/07:30pm 14.1 12.6 10.5 79 1.9 WSW 9 17 5 9 1024.7 1024.7 0.0
23/07:00pm 14.6 10.2 10.4 76 2.2 W 24 28 13 15 1024.6 1024.6 0.0
23/06:30pm 14.9 9.8 10.5 75 2.3 WNW 28 37 15 20 1024.3 1024.3 0.0
23/06:00pm 14.9 10.6 10.7 76 2.2 W 24 32 13 17 1024.3 1024.3 0.0
23/05:30pm 15.0 12.0 10.8 76 2.2 W 17 24 9 13 1024.3 1024.3 0.0
23/05:00pm 15.3 12.2 10.3 72 2.6 WNW 17 20 9 11 1024.0 1024.0 0.0
23/04:30pm 14.9 14.0 10.5 75 2.3 NNE 6 9 3 5 1023.9 1023.9 0.0
23/04:00pm 15.0 13.5 10.4 74 2.4 ESE 9 13 5 7 1023.9 1023.9 0.0
23/03:30pm 15.4 13.4 10.2 71 2.7 SE 11 17 6 9 1023.8 1023.8 0.0
23/03:00pm 15.8 13.8 10.1 69 3.0 SW 11 17 6 9 1023.8 1023.8 0.0
23/02:30pm 16.6 11.9 10.5 67 3.2 W 26 35 14 19 1023.7 1023.7 0.0
23/02:00pm 16.7 14.5 9.4 62 3.8 NW 11 19 6 10 1023.8 1023.8 0.0
23/01:30pm 17.1 15.3 9.5 61 4.0 WNW 9 13 5 7 1023.7 1023.7 0.0
23/01:00pm 16.9 15.5 9.6 62 3.8 NNW 7 15 4 8 1023.8 1023.8 0.0
23/12:30pm 17.6 14.9 9.0 57 4.5 N 13 20 7 11 1024.1 1024.1 0.0
23/12:00pm 17.8 15.4 10.2 61 4.0 NE 13 17 7 9 1024.7 1024.7 0.0
23/11:30am 16.5 13.1 9.0 61 3.9 NNE 17 26 9 14 1024.9 1024.9 0.0
23/11:00am 16.3 13.2 8.8 61 3.8 NNW 15 24 8 13 1025.4 1025.4 0.0
23/10:30am 15.5 12.1 9.0 65 3.3 N 17 24 9 13 1025.7 1025.7 0.0
23/10:00am 14.3 10.3 8.3 67 3.0 NNE 19 26 10 14 1025.7 1025.7 0.0
23/09:30am 13.9 10.3 8.5 70 2.7 NNE 17 20 9 11 1025.9 1025.9 0.0
23/09:00am 12.8 9.5 7.9 72 2.4 NNE 15 20 8 11 1026.0 1026.0 0.0
23/08:30am 12.2 8.6 8.3 77 1.9 NNE 17 20 9 11 1025.8 1025.8 0.0
23/08:00am 11.3 8.4 8.3 82 1.5 NNE 13 17 7 9 1025.9 1025.9 0.0
23/07:30am 10.1 6.8 7.9 86 1.1 NNE 15 19 8 10 1025.7 1025.7 0.0
23/07:00am 9.1 4.8 7.2 88 0.9 N 19 22 10 12 1025.5 1025.5 0.0
23/06:30am 9.0 5.1 7.0 87 0.9 NNE 17 19 9 10 1025.5 1025.5 0.0
23/06:00am 9.1 5.2 7.2 88 0.9 N 17 20 9 11 1025.6 1025.6 0.0
23/05:30am 9.0 5.8 7.0 87 0.9 N 13 17 7 9 1025.5 1025.5 0.0
23/05:00am 9.0 5.8 6.8 86 1.0 N 13 15 7 8 1025.4 1025.4 0.0
23/04:30am 9.4 5.9 7.0 85 1.1 N 15 17 8 9 1025.2 1025.2 0.0
23/04:00am 9.6 5.7 7.0 84 1.2 NNE 17 20 9 11 1025.2 1025.2 0.0
23/03:30am 9.8 5.9 7.1 83 1.3 N 17 19 9 10 1025.3 1025.3 0.0
23/03:00am 9.9 6.7 6.8 81 1.5 N 13 15 7 8 1025.3 1025.3 0.0
23/02:30am 10.0 8.0 6.2 77 1.8 NNW 6 9 3 5 1025.7 1025.7 0.0
23/02:00am 9.8 7.7 6.5 80 1.5 NNW 7 13 4 7 1026.0 1026.0 0.0
23/01:30am 9.9 6.2 6.1 77 1.8 NNW 15 17 8 9 1026.0 1026.0 0.0
23/01:00am 10.6 6.2 6.4 75 2.0 NNW 19 20 10 11 1026.1 1026.1 0.0
23/12:30am 10.5 7.0 7.0 79 1.7 N 15 20 8 11 1026.3 1026.3 0.0
23/12:00am 10.9 7.6 6.6 75 2.0 N 13 19 7 10 1026.1 1026.1 0.0
 
Date/Time
EST
Temp
°C
App
Temp
°C
Dew
Point
°C
Rel
Hum
%
Delta-T
°C
Wind Press
QNH
hPa
Press
MSL
hPa
Rain since
9am
mm
Dir  Spd
km/h
Gust
km/h
Spd
kts
Gust
kts
22/11:30pm 10.8 6.6 5.8 71 2.3 N 17 20 9 11 1025.9 1025.9 0.0
22/11:00pm 11.0 6.9 6.0 71 2.3 N 17 20 9 11 1026.1 1026.1 0.0
22/10:30pm 11.5 7.3 5.8 68 2.7 NNW 17 20 9 11 1026.1 1026.1 0.0
22/10:00pm 12.2 8.0 5.8 65 3.0 NW 17 22 9 12 1026.3 1026.3 0.0
22/09:30pm 12.4 7.8 5.8 64 3.1 NW 19 22 10 12 1026.1 1026.1 0.0
22/09:00pm 12.4 7.7 5.3 62 3.3 NNW 19 32 10 17 1025.9 1025.9 0.0
22/08:30pm 13.1 7.5 5.3 59 3.6 WNW 24 39 13 21 1025.5 1025.5 0.0
22/08:00pm 12.7 8.5 5.8 63 3.2 WNW 17 24 9 13 1025.5 1025.5 0.0
22/07:30pm 13.3 7.4 5.9 61 3.5 WNW 26 35 14 19 1025.4 1025.4 0.0
22/07:00pm 13.3 7.6 6.9 65 3.1 W 26 33 14 18 1025.1 1025.1 0.0
22/06:30pm 13.7 6.6 6.3 61 3.5 W 33 41 18 22 1024.6 1024.6 0.0
22/06:00pm 13.8 6.3 6.4 61 3.5 WNW 35 44 19 24 1024.0 1024.0 0.0
22/05:30pm 14.0 6.9 6.6 61 3.6 W 33 39 18 21 1023.5 1023.5 0.0
22/05:00pm 14.7 7.6 6.5 58 4.0 W 33 39 18 21 1023.1 1023.1 0.0
22/04:30pm 15.1 8.1 6.9 58 4.0 W 33 43 18 23 1022.8 1022.8 0.0
22/04:00pm 16.1 10.3 6.3 52 4.8 WNW 26 35 14 19 1022.6 1022.6 0.0
22/03:30pm 16.6 9.8 6.7 52 4.9 WNW 32 37 17 20 1022.4 1022.4 0.0
22/03:00pm 16.9 11.5 8.1 56 4.5 W 26 33 14 18 1022.1 1022.1 0.0
22/02:30pm 16.8 9.4 6.9 52 4.9 WNW 35 43 19 23 1021.8 1021.8 0.0
22/02:00pm 16.5 9.2 7.2 54 4.6 WNW 35 46 19 25 1021.8 1021.8 0.0
22/01:30pm 17.2 10.2 6.7 50 5.2 WNW 33 39 18 21 1021.6 1021.6 0.0
22/01:00pm 17.3 11.9 8.2 55 4.6 WNW 26 33 14 18 1021.9 1021.9 0.0
22/12:30pm 16.6 10.3 7.5 55 4.6 WNW 30 39 16 21 1021.8 1021.8 0.0
22/12:00pm 15.8 8.7 5.7 51 4.8 WNW 32 43 17 23 1021.9 1021.9 0.0
22/11:30am 15.8 9.2 7.8 59 4.0 WNW 32 46 17 25 1022.1 1022.1 0.0
22/11:00am 14.0 7.5 6.4 60 3.6 WNW 30 39 16 21 1022.3 1022.3 0.0
22/10:30am 13.8 7.4 7.1 64 3.3 WNW 30 43 16 23 1021.9 1021.9 0.0
22/10:00am 13.8 6.3 6.2 60 3.6 NW 35 46 19 25 1021.5 1021.5 0.0
22/09:30am 13.8 5.6 6.4 61 3.6 NW 39 50 21 27 1021.2 1021.2 0.0
22/09:00am 13.5 8.3 5.7 59 3.7 NW 22 37 12 20 1021.1 1021.1 2.0
22/08:30am 13.1 5.9 5.8 61 3.4 NW 33 46 18 25 1020.9 1020.9 2.0
22/08:00am 12.5 6.6 5.9 64 3.1 WNW 26 35 14 19 1020.8 1020.8 2.0
22/07:40am 12.2 5.2 5.8 65 3.0 WNW 32 50 17 27 1020.3 1020.3 2.0
22/07:30am 12.2 3.9 6.0 66 2.9 WNW 39 46 21 25 1020.0 1020.0 2.0
22/07:00am 12.0 5.5 6.3 68 2.7 WNW 30 41 16 22 1020.0 1020.0 2.0
22/06:30am 12.3 7.0 6.8 69 2.6 WNW 24 32 13 17 1019.8 1019.8 2.0
22/06:00am 12.0 5.1 7.3 73 2.3 WNW 33 43 18 23 1018.9 1018.9 2.0
22/05:30am 12.4 3.2 8.1 75 2.1 WNW 46 56 25 30 1018.4 1018.4 2.0
22/05:00am 12.5 3.8 8.4 76 2.0 WNW 44 54 24 29 1018.1 1018.1 2.0
22/04:30am 12.8 3.1 8.9 77 2.0 W 50 61 27 33 1017.4 1017.4 2.0
22/04:00am 13.2 5.8 9.8 80 1.7 W 39 56 21 30 1017.2 1017.2 2.0
22/03:58am 13.3 6.4 10.3 82 1.6 W 37 56 20 30 1017.2 1017.2 2.0
22/03:30am 13.4 8.0 10.9 85 1.3 WNW 30 39 16 21 1017.0 1017.0 1.8
22/03:00am 13.9 10.7 11.1 83 1.5 WNW 19 32 10 17 1016.8 1016.8 1.0

Other formats

Comma delimited format used in spreadsheet applications
http://www.bom.gov.au/fwo/IDT60801/IDT60801.95967.axf

JavaScript Object Notation format (JSON) in row-major order
http://www.bom.gov.au/fwo/IDT60801/IDT60801.95967.json

Data quality

Most of these data are generated automatically and are frequently updated. Quality checks on data are not normally performed. It is possible for incorrect values to appear. Refer to information at About Latest Weather Observations and please check the disclaimer before using these data.